• Join FlightAware (Why Join?)
  • Login
  • US Flag 
01:55PM EDT


 

Airport Tracker/Info


-or-


 

Live Flight TrackerFlight Track Log ✈ N93XP ✈ 20-Jun-2013 ✈ KGYY - KEVV

Flight Track Log - Related Links

Times and Time Zones

All times are in EDT time to prevent confusion due to time zone crossing. See the N93XP flight status page for this flight to view local times or setup timezone preferences in your user account.

Time Position Orientation Groundspeed Altitude Reporting Facility
EDT Latitude Longitude Course Direction KTS MPH feet Rate Location/Type
03:05PM 41.5833 -87.3833 226° Southwest 205 236 2,400  Level Chicago TRACON
03:06PM 41.5353 -87.4508 226° Southwest 235 270 5,500 2,700 Climbing Chicago Center
03:07PM 41.5014 -87.5442 244° Southwest 234 269 8,700 2,580 Climbing Chicago Center
03:08PM 41.4628 -87.6294 239° Southwest 266 306 10,900 1,980 Climbing Chicago Center
03:09PM 41.4147 -87.7153 233° Southwest 290 334 12,800 1,740 Climbing Chicago Center
03:10PM 41.3267 -87.7206 183° South 320 368 14,500 1,560 Climbing Chicago Center
03:11PM 41.2350 -87.7158 178° South 326 375 16,100 1,440 Climbing Chicago Center
03:12PM 41.1414 -87.7106 178° South 334 384 17,500 1,320 Climbing Chicago Center
03:13PM 41.0236 -87.7042 178° South 349 402 18,900 1,260 Climbing Chicago Center
03:14PM 40.9261 -87.6967 177° South 353 406 20,200 1,200 Climbing Chicago Center
03:15PM 40.8258 -87.6911 178° South 359 413 21,400 1,020 Climbing Chicago Center
03:17PM 40.6281 -87.6789 177° South 371 427 23,300 1,020 Climbing Indianapolis Center
03:18PM 40.4997 -87.6717 178° South 382 440 24,500 1,020 Climbing Indianapolis Center
03:20PM 40.3922 -87.6644 177° South 387 445 25,500 960 Climbing Indianapolis Center
03:21PM 40.2833 -87.6586 178° South 391 450 26,500 720 Climbing Indianapolis Center
03:22PM 40.1733 -87.6531 178° South 395 455 27,000 240 Climbing Indianapolis Center
03:23PM 40.0594 -87.6442 177° South 408 470 27,000  Level Indianapolis Center
03:24PM 39.9383 -87.6392 178° South 430 495 27,000  Level Indianapolis Center
03:25PM 39.7894 -87.6294 177° South 447 514 27,000 -420 Level Indianapolis Center
03:26PM 39.6636 -87.6225 178° South 453 521 26,200 -1,260 Descending Indianapolis Center
03:27PM 39.5389 -87.6156 178° South 453 521 24,500 -1,800 Descending Indianapolis Center
03:28PM 39.4172 -87.6075 177° South 444 511 22,600 -1,800 Descending Indianapolis Center
03:29PM 39.2989 -87.6006 177° South 434 499 20,900 -1,860 Descending Indianapolis Center
03:30PM 39.1589 -87.5933 178° South 428 493 18,800 -1,800 Descending Indianapolis Center
03:31PM 39.0436 -87.5872 178° South 417 480 17,200 -1,620 Descending Indianapolis Center
03:32PM 38.9350 -87.5800 177° South 394 453 15,500 -1,740 Descending Indianapolis Center
03:33PM 38.8258 -87.5747 178° South 392 451 13,700 -1,800 Descending Indianapolis Center
03:34PM 38.7222 -87.5583 173° South 376 433 11,900 -1,740 Descending Indianapolis Center
03:35PM 38.6300 -87.5403 171° South 345 397 10,200 -1,860 Descending Indianapolis Center
03:36PM 38.5361 -87.5211 171° South 294 338 8,100 -1,980 Descending Indianapolis Center
03:37PM 38.4639 -87.5078 172° South 271 312 6,200 -1,860 Descending Indianapolis Center
03:38PM 38.3947 -87.4942 171° South 261 300 4,300 -1,800 Descending Indianapolis Center
03:39PM 38.3269 -87.4808 171° South 253 291 2,500 -900 Descending Indianapolis Center
03:40PM 38.2669 -87.4683 171° South 237 273 2,500  Level Indianapolis Center
03:41PM 38.2178 -87.4592 172° South 203 234 2,500 -120 Level Indianapolis Center
03:42PM 38.1611 -87.4481 171° South 183 211 2,300 -480 Descending Indianapolis Center
03:43PM 38.1161 -87.4469 179° South 180 207 1,600 -540 Descending Indianapolis Center
03:44PM 38.0822 -87.4847 221° Southwest 167 192 1,200 -420 Descending Indianapolis Center
03:45PM 38.0431 -87.5236 218° Southwest 162 186 800 -420 Descending Indianapolis Center
03:47PM 38.0333 -87.5167 169° South  Level FlightAware Approximate
03:54PM 38.0384 -87.5309 169° South  Level Estimated
03:55PM 38.0384 -87.5309 169° South  Level Estimated